Time;durP1;ratioP1;P1;durP2;ratioP2;P2;SDS_P1;SDS_P2;PMS_P1;PMS_P2;Temp;Humidity;BMP_temperature;BMP_pressure;BME280_temperature;BME280_humidity;BME280_pressure;Samples;Min_cycle;Max_cycle;Signal;HPM_P1;HPM_P2
2022/11/01 00:00:34;;;;;;;1.63;1.15;;;;;;;2.01;65.20;99307.31;5078791;27;20135;-70
2022/11/01 00:02:59;;;;;;;0.82;0.80;;;;;;;2.05;65.19;99300.13;5100027;27;20564;-70
2022/11/01 00:05:24;;;;;;;1.15;0.85;;;;;;;2.07;64.82;99308.81;5100487;27;20070;-77
2022/11/01 00:07:48;;;;;;;0.88;0.82;;;;;;;2.01;65.07;99296.78;5105543;27;20046;-82
2022/11/01 00:10:13;;;;;;;0.55;0.35;;;;;;;2.00;65.11;99304.75;5120638;27;20052;-79
2022/11/01 00:12:37;;;;;;;3.67;2.60;;;;;;;1.95;65.34;99294.41;5102430;27;20370;-78
2022/11/01 00:15:02;;;;;;;2.60;1.77;;;;;;;1.87;65.25;99314.91;5102415;27;20034;-82
2022/11/01 00:17:28;;;;;;;2.10;1.60;;;;;;;1.86;65.77;99309.72;5103755;27;20411;-76
2022/11/01 00:19:52;;;;;;;2.03;1.45;;;;;;;1.87;66.25;99300.91;5102527;27;20470;-75
2022/11/01 00:22:17;;;;;;;1.35;1.20;;;;;;;1.86;66.88;99305.31;5100681;27;20066;-76
2022/11/01 00:24:41;;;;;;;1.88;1.00;;;;;;;1.78;67.38;99315.28;5115828;27;20038;-79
2022/11/01 00:27:06;;;;;;;1.38;1.10;;;;;;;1.72;68.51;99318.16;5094009;27;20042;-78
2022/11/01 00:29:30;;;;;;;1.52;0.88;;;;;;;1.68;68.81;99308.72;5104047;27;20034;-73
2022/11/01 00:31:55;;;;;;;1.80;1.38;;;;;;;1.68;68.63;99311.34;5100636;27;20133;-71
2022/11/01 00:34:20;;;;;;;1.33;0.90;;;;;;;1.66;69.18;99314.03;5098964;27;20131;-74
2022/11/01 00:36:44;;;;;;;1.20;1.08;;;;;;;1.63;69.17;99311.50;5098571;27;20043;-69
2022/11/01 00:39:13;;;;;;;2.15;1.10;;;;;;;1.68;69.07;99319.22;5101556;27;20043;-78
2022/11/01 00:41:37;;;;;;;1.42;1.23;;;;;;;1.68;69.17;99321.84;5112146;27;20039;-77
2022/11/01 00:44:02;;;;;;;1.77;1.23;;;;;;;1.69;69.50;99321.75;5105651;27;20038;-74
2022/11/01 00:46:27;;;;;;;1.63;0.93;;;;;;;1.73;69.27;99331.25;5090889;27;20067;-73
2022/11/01 00:48:52;;;;;;;1.52;1.33;;;;;;;1.71;68.69;99335.69;5087846;28;20048;-72
2022/11/01 00:51:16;;;;;;;1.67;1.25;;;;;;;1.66;69.39;99335.03;5087058;28;20042;-70
2022/11/01 00:53:41;;;;;;;0.93;0.90;;;;;;;1.61;69.48;99329.09;5086635;28;20039;-68
2022/11/01 00:56:06;;;;;;;1.50;1.30;;;;;;;1.57;69.69;99335.41;5080389;28;20052;-66
2022/11/01 00:58:31;;;;;;;3.92;1.73;;;;;;;1.58;70.06;99334.47;5050506;28;20039;-71
2022/11/01 01:00:56;;;;;;;3.85;1.88;;;;;;;1.59;69.69;99328.31;5073869;28;20047;-76
2022/11/01 01:03:21;;;;;;;1.73;1.63;;;;;;;1.59;69.54;99333.56;5093788;28;20513;-72
2022/11/01 01:05:48;;;;;;;1.63;1.35;;;;;;;1.59;69.18;99330.94;5089646;28;20134;-74
2022/11/01 01:08:12;;;;;;;2.90;1.38;;;;;;;1.61;69.46;99333.50;5097181;27;20050;-71
2022/11/01 01:10:37;;;;;;;1.85;1.55;;;;;;;1.56;69.63;99341.59;5095315;27;20039;-75
2022/11/01 01:13:02;;;;;;;1.77;1.58;;;;;;;1.53;69.89;99336.44;5105696;27;20451;-69
2022/11/01 01:15:27;;;;;;;2.72;1.27;;;;;;;1.53;69.66;99325.94;5094519;27;20053;-65
2022/11/01 01:17:51;;;;;;;2.65;1.20;;;;;;;1.52;69.67;99331.25;5076159;28;20126;-67
2022/11/01 01:20:16;;;;;;;2.78;1.25;;;;;;;1.56;69.43;99330.22;5061381;28;20430;-69
2022/11/01 01:22:41;;;;;;;1.27;0.98;;;;;;;1.57;69.66;99332.78;5080930;28;20057;-68
2022/11/01 01:25:07;;;;;;;4.03;1.38;;;;;;;1.57;69.42;99334.56;5106404;27;20035;-74
2022/11/01 01:27:31;;;;;;;2.72;1.77;;;;;;;1.56;69.20;99331.06;5091293;28;20039;-74
2022/11/01 01:29:56;;;;;;;1.70;0.75;;;;;;;1.52;69.08;99332.09;5087568;28;20065;-70
2022/11/01 01:32:22;;;;;;;1.58;0.90;;;;;;;1.54;69.09;99334.69;5086765;28;20047;-69
2022/11/01 01:34:47;;;;;;;2.13;1.45;;;;;;;1.52;68.65;99328.63;5090066;28;20050;-66
2022/11/01 01:37:16;;;;;;;0.90;0.70;;;;;;;1.59;68.70;99336.19;5072396;28;20135;-71
2022/11/01 01:39:41;;;;;;;3.75;1.10;;;;;;;1.66;68.18;99327.16;5088284;28;20114;-73
2022/11/01 01:42:31;;;;;;;1.27;1.15;;;;;;;1.67;67.91;99325.38;5092427;28;20126;-77
2022/11/01 01:44:56;;;;;;;1.92;0.98;;;;;;;1.64;67.76;99329.00;5090378;28;20055;-73
2022/11/01 01:47:27;;;;;;;1.00;0.73;;;;;;;1.70;67.15;99335.75;5095921;28;20039;-79
2022/11/01 01:50:00;;;;;;;0.80;0.77;;;;;;;1.70;67.21;99344.50;5098207;28;20047;-71
2022/11/01 01:52:27;;;;;;;2.22;1.27;;;;;;;1.69;66.96;99339.31;5099230;28;20061;-78
2022/11/01 01:54:53;;;;;;;2.40;1.33;;;;;;;1.62;66.79;99350.97;5082143;28;20066;-75
2022/11/01 01:57:18;;;;;;;1.17;1.08;;;;;;;1.65;66.96;99358.75;5094304;28;20032;-76
2022/11/01 01:59:43;;;;;;;0.95;0.82;;;;;;;1.67;67.08;99357.78;5094399;28;20044;-74
2022/11/01 02:02:08;;;;;;;1.58;1.20;;;;;;;1.67;66.43;99349.91;5061500;28;20613;-74
2022/11/01 02:04:43;;;;;;;1.05;0.90;;;;;;;1.68;66.21;99353.38;5089778;27;20876;-73
2022/11/01 02:07:08;;;;;;;6.90;1.00;;;;;;;1.65;66.36;99356.13;5088299;28;20126;-69
2022/11/01 02:09:34;;;;;;;0.70;0.70;;;;;;;1.59;65.58;99359.84;5106959;27;20070;-77
2022/11/01 02:11:58;;;;;;;2.15;1.00;;;;;;;1.61;66.24;99347.50;5109807;27;20035;-74
2022/11/01 02:14:24;;;;;;;1.25;0.85;;;;;;;1.66;65.76;99358.69;5100690;27;20051;-78
2022/11/01 02:16:54;;;;;;;1.55;0.90;;;;;;;1.68;65.85;99361.25;5081408;28;20414;-71
2022/11/01 02:19:37;;;;;;;3.85;1.45;;;;;;;1.71;65.85;99347.97;5079559;27;20063;-74
2022/11/01 02:22:14;;;;;;;1.00;0.70;;;;;;;1.69;65.62;99362.97;5096908;27;20097;-71
2022/11/01 02:24:51;;;;;;;1.10;1.00;;;;;;;1.66;65.61;99355.22;5096165;27;20046;-66
2022/11/01 02:27:23;;;;;;;1.20;0.90;;;;;;;1.60;65.79;99353.66;5095567;28;20558;-74
2022/11/01 02:29:57;;;;;;;0.98;0.93;;;;;;;1.58;65.83;99359.91;5083744;28;20035;-75
2022/11/01 02:32:30;;;;;;;;;;;;;;;1.69;66.25;99366.44;5096432;27;20566;-74
2022/11/01 02:35:11;;;;;;;1.80;1.20;;;;;;;1.66;65.94;99369.19;5099116;27;19915;-74
2022/11/01 02:38:06;;;;;;;1.17;1.08;;;;;;;1.68;65.93;99372.63;5092868;28;20445;-70
2022/11/01 02:40:42;;;;;;;2.47;1.33;;;;;;;1.69;66.11;99371.69;5082256;27;20044;-70
2022/11/01 02:43:14;;;;;;;1.40;1.00;;;;;;;1.71;65.73;99372.47;5089483;27;20095;-70
2022/11/01 02:45:44;;;;;;;1.83;1.10;;;;;;;1.67;65.56;99378.81;5089739;27;20039;-71
2022/11/01 02:48:08;;;;;;;1.52;0.93;;;;;;;1.69;65.12;99370.84;5088767;28;20494;-72
2022/11/01 02:50:42;;;;;;;2.08;1.23;;;;;;;1.72;65.54;99379.44;5086785;28;20504;-71
2022/11/01 02:53:07;;;;;;;1.35;1.25;;;;;;;1.66;65.06;99371.81;5068225;28;20055;-71
2022/11/01 02:55:35;;;;;;;1.15;0.82;;;;;;;1.64;65.32;99371.03;5085245;28;20127;-71
2022/11/01 02:58:02;;;;;;;1.17;1.02;;;;;;;1.66;65.49;99373.59;5085980;28;20126;-70
2022/11/01 03:00:35;;;;;;;1.10;0.63;;;;;;;1.70;65.40;99383.91;5089584;28;20031;-71
2022/11/01 03:03:26;;;;;;;2.08;1.15;;;;;;;1.76;65.73;99386.31;5078982;28;20051;-72
2022/11/01 03:06:01;;;;;;;1.67;0.98;;;;;;;1.76;65.25;99382.81;5080544;28;20038;-72
2022/11/01 03:08:36;;;;;;;0.80;0.80;;;;;;;1.71;65.12;99385.63;5109865;28;20043;-72
2022/11/01 03:11:00;;;;;;;;;;;;;;;1.80;64.67;99387.06;5109702;27;20068;-72
2022/11/01 03:13:34;;;;;;;;;;;;;;;1.81;64.87;99386.97;5095312;28;19988;-73
2022/11/01 03:16:08;;;;;;;3.60;1.77;;;;;;;1.71;65.00;99379.50;5103987;28;20008;-72
2022/11/01 03:18:35;;;;;;;1.42;1.30;;;;;;;1.72;64.81;99384.72;5111964;27;20069;-72
2022/11/01 03:21:14;;;;;;;1.88;1.23;;;;;;;1.74;65.09;99393.41;5123588;27;20442;-72
2022/11/01 03:23:49;;;;;;;4.68;1.33;;;;;;;1.72;64.80;99384.72;5111451;27;20064;-72
2022/11/01 03:26:22;;;;;;;4.57;2.25;;;;;;;1.66;64.32;99384.97;5130472;27;20046;-71
2022/11/01 03:28:52;;;;;;;4.00;1.50;;;;;;;1.67;64.30;99384.06;5131686;27;20114;-71
2022/11/01 03:31:26;;;;;;;3.83;1.45;;;;;;;1.72;64.72;99391.72;5095639;27;20591;-74
2022/11/01 03:33:55;;;;;;;1.23;1.13;;;;;;;1.70;64.29;99389.16;5122046;27;20046;-73
2022/11/01 03:36:23;;;;;;;2.33;2.08;;;;;;;1.70;64.27;99390.94;5137334;27;20030;-73
2022/11/01 03:38:56;;;;;;;2.20;1.45;;;;;;;1.74;64.27;99388.13;5135524;27;20046;-74
2022/11/01 03:41:23;;;;;;;2.25;1.60;;;;;;;1.65;63.81;99392.91;5142340;27;20050;-71
2022/11/01 03:43:48;;;;;;;3.10;2.10;;;;;;;1.58;64.09;99381.75;5120569;27;20046;-70
2022/11/01 03:46:14;;;;;;;3.90;1.75;;;;;;;1.59;64.21;99386.09;5121280;27;20050;-73
2022/11/01 03:48:39;;;;;;;3.58;1.70;;;;;;;1.61;64.27;99386.91;5100278;27;20042;-72
2022/11/01 03:51:04;;;;;;;8.43;1.67;;;;;;;1.64;64.27;99397.31;5113505;27;20045;-73
2022/11/01 03:53:28;;;;;;;3.13;2.05;;;;;;;1.65;63.81;99385.88;5102607;27;20047;-74
2022/11/01 03:55:53;;;;;;;2.58;1.38;;;;;;;1.59;63.69;99398.38;5121858;27;20492;-73
2022/11/01 03:58:18;;;;;;;2.25;1.60;;;;;;;1.57;63.22;99402.88;5101495;27;20054;-72
2022/11/01 04:00:44;;;;;;;2.55;1.35;;;;;;;1.46;63.23;99390.16;5100930;27;20272;-73
2022/11/01 04:03:10;;;;;;;3.38;2.17;;;;;;;1.39;63.43;99396.53;5101149;27;20039;-71
2022/11/01 04:05:36;;;;;;;2.10;1.52;;;;;;;1.42;63.70;99391.16;5121661;27;20043;-74
2022/11/01 04:08:01;;;;;;;2.40;1.42;;;;;;;1.41;64.10;99392.94;5100707;27;20070;-73
2022/11/01 04:10:28;;;;;;;3.40;1.55;;;;;;;1.39;64.05;99391.28;5100684;27;20073;-73
2022/11/01 04:12:52;;;;;;;7.70;2.67;;;;;;;1.34;63.85;99396.72;5118503;27;20145;-72
2022/11/01 04:21:08;;;;;;;4.03;1.58;;;;;;;1.45;64.17;99391.91;5120753;27;20517;-75
2022/11/01 04:23:33;;;;;;;5.28;1.88;;;;;;;1.37;64.24;99390.47;5101164;27;20049;-74
2022/11/01 04:25:58;;;;;;;7.22;1.90;;;;;;;1.40;64.56;99390.38;5066683;27;20134;-74
2022/11/01 04:28:22;;;;;;;3.72;2.22;;;;;;;1.45;64.35;99396.31;5119382;27;20130;-72
2022/11/01 04:30:47;;;;;;;3.40;2.33;;;;;;;1.48;64.05;99404.06;5119948;27;20066;-73
2022/11/01 04:33:11;;;;;;;3.03;2.17;;;;;;;1.48;64.39;99401.44;5101376;27;20045;-74
2022/11/01 04:35:37;;;;;;;6.63;2.58;;;;;;;1.46;64.17;99398.03;5101361;27;20042;-73
2022/11/01 04:38:01;;;;;;;4.20;2.00;;;;;;;1.44;64.09;99405.09;5119391;27;20098;-74
2022/11/01 04:40:26;;;;;;;3.97;2.05;;;;;;;1.42;64.22;99401.69;5120521;27;20043;-74
2022/11/01 04:42:52;;;;;;;2.13;1.85;;;;;;;1.45;64.49;99401.56;5102612;27;20034;-73
2022/11/01 04:45:16;;;;;;;6.32;2.85;;;;;;;1.52;64.09;99400.41;5101621;27;20035;-74
2022/11/01 04:47:49;;;;;;;3.83;2.45;;;;;;;1.57;63.82;99397.63;5101181;27;20046;-71
2022/11/01 04:50:14;;;;;;;3.78;2.40;;;;;;;1.52;63.76;99404.81;5118460;27;20046;-73
2022/11/01 04:52:38;;;;;;;4.03;2.03;;;;;;;1.53;64.00;99410.00;5099505;27;20039;-73
2022/11/01 04:55:03;;;;;;;4.10;2.33;;;;;;;1.52;63.94;99408.28;5099804;27;20050;-71
2022/11/01 04:57:28;;;;;;;4.10;2.70;;;;;;;1.46;63.77;99403.28;5099072;27;20126;-72
2022/11/01 04:59:54;;;;;;;9.15;2.53;;;;;;;1.48;63.63;99409.31;5082568;27;20146;-72
2022/11/01 05:02:21;;;;;;;4.85;2.63;;;;;;;1.45;63.86;99398.94;5099106;27;20045;-71
2022/11/01 05:04:47;;;;;;;3.05;2.42;;;;;;;1.53;63.78;99404.75;5098892;27;20068;-73
2022/11/01 05:07:12;;;;;;;3.08;2.13;;;;;;;1.57;64.10;99419.50;5081580;27;20170;-71
2022/11/01 05:09:36;;;;;;;4.20;1.90;;;;;;;1.63;63.96;99411.34;5118125;27;20060;-72
2022/11/01 05:12:01;;;;;;;3.80;2.30;;;;;;;1.58;63.58;99421.16;5099670;27;20122;-72
2022/11/01 05:14:26;;;;;;;3.05;1.92;;;;;;;1.64;63.55;99417.47;5117909;27;20034;-73
2022/11/01 05:16:54;;;;;;;5.38;2.15;;;;;;;1.71;63.57;99414.53;5118256;27;20057;-73
2022/11/01 05:19:18;;;;;;;3.47;2.22;;;;;;;1.75;63.66;99413.50;5118037;27;20055;-72
2022/11/01 05:21:43;;;;;;;5.28;2.05;;;;;;;1.81;63.65;99421.13;5120963;27;20053;-73
2022/11/01 05:24:08;;;;;;;8.05;2.35;;;;;;;1.69;63.32;99416.34;5122343;27;20066;-72
2022/11/01 05:26:32;;;;;;;3.58;2.63;;;;;;;1.69;63.73;99413.72;5117104;27;20046;-71
2022/11/01 05:28:57;;;;;;;6.40;2.10;;;;;;;1.69;63.79;99421.59;5080612;27;20041;-71
2022/11/01 05:31:22;;;;;;;2.58;2.00;;;;;;;1.73;64.05;99417.97;5116115;27;20035;-71
2022/11/01 05:33:46;;;;;;;5.50;2.35;;;;;;;1.75;64.00;99417.91;5116936;27;20046;-73
2022/11/01 05:36:11;;;;;;;3.67;2.28;;;;;;;1.76;63.78;99411.72;5116432;27;20042;-72
2022/11/01 05:38:35;;;;;;;4.43;2.67;;;;;;;1.83;64.00;99416.69;5098377;27;20042;-72
2022/11/01 05:41:01;;;;;;;4.45;2.10;;;;;;;1.89;64.00;99412.97;5116252;27;20038;-71
2022/11/01 05:43:26;;;;;;;4.10;1.95;;;;;;;1.89;63.63;99409.47;5116390;27;20053;-72
2022/11/01 05:45:50;;;;;;;2.97;1.85;;;;;;;1.85;63.34;99405.25;5097529;27;20046;-72
2022/11/01 05:48:15;;;;;;;2.35;1.50;;;;;;;1.87;63.68;99435.81;5097925;27;20045;-75
2022/11/01 05:50:41;;;;;;;2.03;1.75;;;;;;;1.91;63.31;99415.53;5117234;27;20039;-74
2022/11/01 05:53:07;;;;;;;2.30;1.88;;;;;;;1.97;63.62;99416.13;5116936;27;20042;-73
2022/11/01 05:55:32;;;;;;;3.58;2.05;;;;;;;1.97;63.33;99417.91;5116914;27;20098;-73
2022/11/01 05:57:57;;;;;;;5.30;2.58;;;;;;;1.99;63.45;99419.56;5116184;27;20047;-74
2022/11/01 06:00:22;;;;;;;5.97;3.03;;;;;;;2.02;63.44;99418.59;5117045;27;20126;-73
2022/11/01 06:02:46;;;;;;;4.07;2.55;;;;;;;2.06;63.69;99421.00;5097716;27;20078;-73
2022/11/01 06:05:11;;;;;;;4.93;2.13;;;;;;;2.11;63.62;99419.06;5097823;27;20087;-72
2022/11/01 06:07:35;;;;;;;2.42;2.00;;;;;;;2.15;63.60;99425.03;5097759;27;20046;-72
2022/11/01 06:10:00;;;;;;;4.65;2.20;;;;;;;2.18;63.54;99435.44;5116479;27;20573;-74
2022/11/01 06:12:25;;;;;;;4.40;2.50;;;;;;;2.24;63.56;99429.09;5098105;27;20046;-73
2022/11/01 06:14:49;;;;;;;5.50;2.50;;;;;;;2.20;63.13;99438.88;5098380;27;20556;-72
2022/11/01 06:17:14;;;;;;;9.23;2.88;;;;;;;2.21;63.32;99430.06;5116464;27;20449;-72
2022/11/01 06:19:38;;;;;;;4.05;2.78;;;;;;;2.26;63.55;99432.50;5115796;27;20171;-72
2022/11/01 06:22:03;;;;;;;4.15;2.45;;;;;;;2.29;63.53;99433.22;5080414;27;20083;-72
2022/11/01 06:24:28;;;;;;;5.72;2.58;;;;;;;2.37;63.44;99439.00;5115905;27;20126;-73
2022/11/01 06:26:52;;;;;;;5.85;2.63;;;;;;;2.39;63.05;99436.31;5116124;27;20038;-73
2022/11/01 06:29:17;;;;;;;6.80;2.78;;;;;;;2.41;63.07;99443.25;5116941;27;20069;-75
2022/11/01 06:31:41;;;;;;;2.95;2.20;;;;;;;2.41;62.57;99447.66;5116920;27;20140;-73
2022/11/01 06:34:06;;;;;;;2.85;2.05;;;;;;;2.45;63.10;99433.47;5116230;27;20561;-74
2022/11/01 06:36:30;;;;;;;5.03;2.58;;;;;;;2.39;62.80;99428.44;5081180;27;20051;-72
2022/11/01 06:38:55;;;;;;;5.47;2.45;;;;;;;2.42;63.21;99439.69;5115123;27;20034;-71
2022/11/01 06:41:19;;;;;;;7.03;1.80;;;;;;;2.44;62.92;99447.53;5099355;27;20039;-72
2022/11/01 06:43:47;;;;;;;4.65;2.38;;;;;;;2.48;63.31;99444.69;5095134;28;20047;-70
2022/11/01 06:46:11;;;;;;;9.38;2.08;;;;;;;2.49;63.23;99442.91;5094977;28;20137;-72
2022/11/01 06:48:36;;;;;;;4.88;2.15;;;;;;;2.52;63.09;99434.91;5095218;27;20126;-73
2022/11/01 06:51:02;;;;;;;3.25;1.65;;;;;;;2.54;62.70;99441.81;5076841;28;20039;-73
2022/11/01 06:53:27;;;;;;;8.60;2.33;;;;;;;2.55;62.69;99447.94;5060190;28;20439;-71
2022/11/01 06:55:51;;;;;;;3.72;2.47;;;;;;;2.59;63.06;99449.53;5076569;28;20382;-72
2022/11/01 06:58:16;;;;;;;6.90;2.65;;;;;;;2.61;63.42;99444.16;5062849;27;20035;-73
2022/11/01 07:00:41;;;;;;;4.53;2.45;;;;;;;2.63;63.17;99437.06;5099107;27;20485;-74
2022/11/01 07:03:09;;;;;;;4.20;2.17;;;;;;;2.71;62.69;99450.78;5099507;27;20065;-74
2022/11/01 07:05:36;;;;;;;4.70;2.30;;;;;;;2.71;63.05;99451.59;5099965;27;20085;-75
2022/11/01 07:08:01;;;;;;;4.53;1.88;;;;;;;2.73;62.81;99455.03;5064995;27;20050;-74
2022/11/01 07:10:26;;;;;;;2.20;2.00;;;;;;;2.74;63.01;99467.28;5107792;27;20542;-73
2022/11/01 07:13:01;;;;;;;4.72;2.45;;;;;;;2.81;62.95;99449.47;5119766;27;20042;-74
2022/11/01 07:15:27;;;;;;;4.72;2.53;;;;;;;2.83;62.81;99453.72;5113959;27;20236;-75
2022/11/01 07:17:59;;;;;;;5.90;2.90;;;;;;;2.96;62.84;99453.19;5129389;27;20038;-73
2022/11/01 07:20:25;;;;;;;4.18;2.63;;;;;;;2.91;62.67;99448.16;5119329;27;20046;-74
2022/11/01 07:23:00;;;;;;;2.63;1.98;;;;;;;2.99;62.28;99451.28;5101000;27;20114;-75
2022/11/01 07:25:26;;;;;;;3.75;2.30;;;;;;;2.95;61.96;99459.38;5083684;27;20042;-72
2022/11/01 07:27:51;;;;;;;2.78;1.70;;;;;;;2.91;61.86;99454.25;5118862;27;20141;-72
2022/11/01 07:30:15;;;;;;;10.32;2.35;;;;;;;2.94;62.23;99455.88;5119569;27;20134;-73
2022/11/01 07:32:40;;;;;;;4.55;2.40;;;;;;;2.95;62.37;99457.59;5119090;27;20049;-74
2022/11/01 07:35:05;;;;;;;3.53;1.83;;;;;;;2.98;62.42;99461.88;5119498;27;20528;-75
2022/11/01 07:37:29;;;;;;;9.43;2.78;;;;;;;3.01;61.93;99465.25;5101142;27;20031;-74
2022/11/01 07:39:54;;;;;;;4.32;2.78;;;;;;;2.95;61.74;99457.59;5082108;27;20054;-73
2022/11/01 07:42:19;;;;;;;5.38;2.72;;;;;;;2.98;61.88;99460.09;5081743;27;20083;-74
2022/11/01 07:44:44;;;;;;;6.18;3.20;;;;;;;3.01;62.00;99454.72;5101994;27;20043;-74
2022/11/01 07:47:09;;;;;;;4.28;3.03;;;;;;;2.99;60.73;99458.34;5086909;27;20049;-73
2022/11/01 07:49:33;;;;;;;5.13;2.33;;;;;;;2.98;60.90;99461.88;5087108;27;20047;-72
2022/11/01 07:51:58;;;;;;;4.38;2.60;;;;;;;2.96;60.95;99467.22;5087578;27;20167;-74
2022/11/01 07:54:23;;;;;;;4.25;2.25;;;;;;;2.98;61.04;99459.25;5100332;27;20126;-74
2022/11/01 07:56:47;;;;;;;6.22;2.40;;;;;;;3.03;60.85;99463.41;5065004;27;20042;-73
2022/11/01 07:59:12;;;;;;;11.85;3.60;;;;;;;3.05;60.95;99468.63;5081312;27;20039;-73
2022/11/01 08:01:36;;;;;;;3.53;2.67;;;;;;;3.02;60.81;99468.75;5099942;27;20039;-74
2022/11/01 08:04:01;;;;;;;4.28;2.35;;;;;;;3.07;61.17;99466.75;5064917;27;20126;-73
2022/11/01 08:06:26;;;;;;;5.50;2.42;;;;;;;3.08;61.06;99469.31;5099784;27;20035;-72
2022/11/01 08:08:52;;;;;;;10.25;3.15;;;;;;;3.07;60.81;99469.38;5100194;27;20132;-73
2022/11/01 08:11:16;;;;;;;5.05;2.90;;;;;;;3.14;60.94;99465.56;5078711;27;20062;-72
2022/11/01 08:13:41;;;;;;;11.93;4.05;;;;;;;3.16;61.11;99459.28;5067660;27;20067;-73
2022/11/01 08:16:06;;;;;;;5.47;3.10;;;;;;;3.16;61.01;99461.09;5100710;27;20429;-73
2022/11/01 08:18:31;;;;;;;8.45;2.60;;;;;;;3.23;61.37;99458.13;5097977;27;20437;-74
2022/11/01 08:20:57;;;;;;;3.20;1.98;;;;;;;3.33;61.25;99455.06;5097907;27;20078;-71
2022/11/01 08:23:22;;;;;;;4.45;2.38;;;;;;;3.35;61.00;99455.84;5098031;27;20134;-72
2022/11/01 08:25:47;;;;;;;5.03;3.00;;;;;;;3.38;60.56;99461.00;5097588;27;20572;-72
2022/11/01 08:28:14;;;;;;;6.10;3.08;;;;;;;3.36;60.47;99455.78;5080163;27;20114;-72
2022/11/01 08:30:40;;;;;;;9.32;4.07;;;;;;;3.44;60.02;99458.06;5097753;27;20046;-71
2022/11/01 08:33:05;;;;;;;6.80;2.83;;;;;;;3.50;60.17;99460.44;5097871;27;20143;-72
2022/11/01 08:35:31;;;;;;;4.03;2.38;;;;;;;3.61;60.06;99460.81;5096795;27;20228;-72
2022/11/01 08:37:57;;;;;;;9.23;3.20;;;;;;;3.69;59.91;99461.28;5097102;27;20502;-73
2022/11/01 08:40:23;;;;;;;2.72;2.35;;;;;;;3.76;59.66;99459.22;5104905;27;20067;-72
2022/11/01 08:42:48;;;;;;;8.15;3.20;;;;;;;3.74;58.97;99454.00;5118071;27;20079;-70
2022/11/01 08:45:13;;;;;;;10.13;2.55;;;;;;;3.72;59.20;99463.78;5098921;27;20553;-71
2022/11/01 08:47:39;;;;;;;8.93;3.08;;;;;;;3.74;59.09;99463.69;5117874;27;20539;-73
2022/11/01 08:50:05;;;;;;;5.03;2.38;;;;;;;3.80;59.21;99459.00;5117649;27;20171;-72
2022/11/01 08:52:29;;;;;;;4.50;2.10;;;;;;;3.88;59.42;99463.91;5082066;27;20077;-73
2022/11/01 08:54:54;;;;;;;5.20;2.47;;;;;;;3.90;58.50;99459.44;5117916;27;20079;-74
2022/11/01 08:57:18;;;;;;;6.85;2.78;;;;;;;4.03;58.73;99452.66;5117383;27;20174;-73
2022/11/01 08:59:43;;;;;;;6.00;2.83;;;;;;;3.96;58.26;99454.72;5082591;27;20420;-72
2022/11/01 09:02:10;;;;;;;8.68;3.05;;;;;;;4.16;58.00;99450.28;5098824;27;20129;-72
2022/11/01 09:04:35;;;;;;;8.95;2.45;;;;;;;4.16;57.77;99456.41;5098838;27;20046;-71
2022/11/01 09:06:59;;;;;;;4.60;2.17;;;;;;;4.06;57.14;99456.94;5117085;27;20038;-74
2022/11/01 09:09:24;;;;;;;5.00;2.60;;;;;;;4.13;57.08;99445.16;5117483;27;20048;-72
2022/11/01 09:11:48;;;;;;;3.75;2.08;;;;;;;4.15;56.79;99452.06;5099778;27;20065;-71
2022/11/01 09:14:13;;;;;;;5.28;2.53;;;;;;;4.12;57.05;99462.75;5064504;27;20137;-71
2022/11/01 09:16:38;;;;;;;2.28;1.90;;;;;;;4.10;56.80;99463.75;5116815;27;20125;-74
2022/11/01 09:19:02;;;;;;;12.73;2.50;;;;;;;4.05;56.70;99468.41;5098034;27;20134;-74
2022/11/01 09:21:28;;;;;;;6.68;2.17;;;;;;;4.02;56.66;99461.50;5097078;27;20046;-72
2022/11/01 09:23:53;;;;;;;3.03;2.28;;;;;;;4.06;57.05;99462.22;5081290;27;20552;-72
2022/11/01 09:26:18;;;;;;;8.90;3.28;;;;;;;4.09;56.43;99468.16;5117176;27;20389;-73
2022/11/01 09:28:43;;;;;;;3.65;2.40;;;;;;;4.12;57.24;99461.91;5097434;27;20130;-74
2022/11/01 09:31:10;;;;;;;3.78;2.28;;;;;;;4.15;57.15;99454.69;5117029;27;20035;-73
2022/11/01 09:33:35;;;;;;;6.25;2.58;;;;;;;4.12;56.21;99456.63;5117094;27;20066;-72
2022/11/01 09:36:01;;;;;;;9.80;2.67;;;;;;;4.04;56.97;99454.34;5099496;27;20042;-72
2022/11/01 09:38:26;;;;;;;4.78;2.53;;;;;;;4.10;57.29;99455.84;5099443;27;20492;-73
2022/11/01 09:41:01;;;;;;;5.95;2.95;;;;;;;4.18;57.36;99451.88;5099458;27;20046;-72
2022/11/01 09:43:29;;;;;;;5.45;2.00;;;;;;;4.21;57.48;99451.75;5118099;27;20133;-73
2022/11/01 09:45:58;;;;;;;6.88;2.45;;;;;;;4.23;56.48;99456.97;5099599;27;20133;-74
2022/11/01 09:48:29;;;;;;;5.50;2.45;;;;;;;4.27;56.97;99448.81;5099629;27;20043;-73
2022/11/01 09:50:53;;;;;;;4.35;2.25;;;;;;;4.31;56.67;99444.22;5117382;27;20074;-71
2022/11/01 09:53:24;;;;;;;8.52;2.80;;;;;;;4.43;56.24;99451.56;5115305;27;20073;-71
2022/11/01 09:56:27;;;;;;;7.28;2.47;;;;;;;4.44;55.59;99449.75;5096435;27;20493;-73
2022/11/01 09:58:51;;;;;;;7.22;2.67;;;;;;;4.29;55.88;99448.72;5096473;27;20038;-72
2022/11/01 10:01:39;;;;;;;3.40;2.33;;;;;;;4.29;56.25;99454.00;5061503;27;20058;-73
2022/11/01 10:04:33;;;;;;;4.95;2.72;;;;;;;4.18;55.02;99451.03;5095019;27;20075;-73
2022/11/01 10:07:16;;;;;;;5.18;2.40;;;;;;;4.13;55.90;99447.78;5060038;27;20134;-73
2022/11/01 10:09:43;;;;;;;2.53;1.52;;;;;;;4.06;56.12;99435.81;5076736;27;20046;-70
2022/11/01 10:12:52;;;;;;;2.67;1.75;;;;;;;4.15;56.73;99445.94;5095095;27;20070;-72
2022/11/01 10:15:31;;;;;;;2.83;2.20;;;;;;;4.07;55.85;99448.91;5076744;27;20513;-72
2022/11/01 10:18:12;;;;;;;3.35;1.67;;;;;;;4.10;56.43;99450.56;5095481;27;20114;-73
2022/11/01 10:20:39;;;;;;;8.55;2.72;;;;;;;4.18;56.02;99456.31;5059158;27;20098;-72
2022/11/01 10:23:04;;;;;;;4.95;2.30;;;;;;;4.13;56.22;99450.41;5076506;28;20042;-74
2022/11/01 10:25:33;;;;;;;2.88;2.58;;;;;;;4.26;56.02;99440.97;5080331;27;20043;-71
2022/11/01 10:28:33;;;;;;;3.22;2.05;;;;;;;4.35;55.76;99448.44;5097013;27;20043;-71
2022/11/01 10:31:04;;;;;;;3.72;2.28;;;;;;;4.45;55.99;99444.41;5014915;28;20040;-71
2022/11/01 10:33:34;;;;;;;4.47;2.53;;;;;;;4.37;55.32;99451.88;5014984;28;20102;-72
2022/11/01 10:36:09;;;;;;;6.15;2.92;;;;;;;4.28;55.48;99444.41;5032466;28;20040;-72
2022/11/01 10:38:39;;;;;;;6.00;2.80;;;;;;;4.25;55.83;99448.03;5032187;28;20044;-73
2022/11/01 10:41:15;;;;;;;13.05;3.47;;;;;;;4.22;55.93;99453.47;5032268;28;20044;-72
2022/11/01 10:43:44;;;;;;;10.25;3.40;;;;;;;4.17;56.19;99449.34;5016348;28;20059;-72
2022/11/01 10:46:16;;;;;;;12.77;2.40;;;;;;;4.11;56.49;99447.00;5034275;28;20048;-74
2022/11/01 10:48:47;;;;;;;3.38;2.17;;;;;;;4.12;56.17;99460.13;5016374;28;20068;-73
2022/11/01 10:51:15;;;;;;;5.65;3.50;;;;;;;4.06;56.43;99455.16;5032882;28;20048;-73
2022/11/01 10:53:45;;;;;;;4.00;2.90;;;;;;;4.07;56.57;99461.25;5037175;28;20048;-74
2022/11/01 10:56:16;;;;;;;2.92;2.53;;;;;;;4.06;56.71;99454.28;5033454;28;20143;-69
2022/11/01 10:58:50;;;;;;;8.05;2.58;;;;;;;4.10;57.07;99463.75;5033455;28;20222;-71
2022/11/01 11:01:19;;;;;;;;;;;;;;;4.07;55.71;99458.59;5036815;28;20628;-69
2022/11/01 11:03:45;;;;;;;2.40;2.08;;;;;;;3.92;56.29;99461.06;5017672;28;19994;-69
2022/11/01 11:06:12;;;;;;;9.18;2.50;;;;;;;3.89;56.14;99455.06;5094903;28;20043;-73
2022/11/01 11:08:43;;;;;;;8.35;3.17;;;;;;;3.87;56.68;99457.78;5095531;27;20039;-73
2022/11/01 11:11:13;;;;;;;10.35;3.05;;;;;;;3.85;56.38;99457.00;5059563;28;20043;-72
2022/11/01 11:13:42;;;;;;;6.15;2.28;;;;;;;3.85;56.72;99453.50;5095282;28;20520;-72
2022/11/01 11:16:30;;;;;;;5.22;2.53;;;;;;;3.77;56.55;99466.19;5094699;28;20130;-71
2022/11/01 11:19:07;;;;;;;5.38;2.90;;;;;;;3.74;57.12;99463.69;5094344;28;20047;-72
2022/11/01 11:21:34;;;;;;;5.15;2.80;;;;;;;3.69;56.77;99461.28;5094829;27;20046;-72
2022/11/01 11:23:59;;;;;;;8.35;3.08;;;;;;;3.65;56.57;99462.34;5083271;27;20077;-76
2022/11/01 11:26:25;;;;;;;9.18;3.30;;;;;;;3.70;56.42;99465.66;5115699;27;20523;-75
2022/11/01 11:28:53;;;;;;;6.80;2.72;;;;;;;3.68;56.54;99464.00;5096872;27;20073;-75
2022/11/01 11:31:24;;;;;;;6.30;2.95;;;;;;;3.65;56.32;99459.72;5097920;27;20041;-76
2022/11/01 11:34:11;;;;;;;7.85;3.05;;;;;;;3.70;56.51;99465.66;5080439;27;20046;-74
2022/11/01 11:36:41;;;;;;;5.63;2.55;;;;;;;3.73;57.30;99473.38;5115043;27;20133;-73
2022/11/01 11:39:06;;;;;;;10.10;2.80;;;;;;;3.61;56.42;99464.25;5096732;27;20035;-69
2022/11/01 11:41:37;;;;;;;8.52;3.28;;;;;;;3.63;56.46;99461.56;5095810;27;20038;-70
2022/11/01 11:44:02;;;;;;;3.97;2.50;;;;;;;3.64;56.53;99466.75;5097691;27;20078;-69
2022/11/01 11:46:28;;;;;;;4.50;3.13;;;;;;;3.68;56.76;99464.84;5118325;27;20038;-75
2022/11/01 11:49:03;;;;;;;8.40;3.13;;;;;;;3.62;56.40;99463.34;5098543;27;20034;-73